Time;durP1;ratioP1;P1;durP2;ratioP2;P2;SDS_P1;SDS_P2;PMS_P1;PMS_P2;Temp;Humidity;BMP_temperature;BMP_pressure;BME280_temperature;BME280_humidity;BME280_pressure;Samples;Min_cycle;Max_cycle;Signal;HPM_P1;HPM_P2
2022/05/15 12:30:34;;;;;;;5.10;2.30;;;;;;;22.19;36.09;99283.00;101826;1309;600124;-79
2022/05/15 12:33:07;;;;;;;5.00;2.60;;;;;;;22.20;35.66;99287.10;104459;1281;59413;-78
2022/05/15 12:35:35;;;;;;;4.80;3.00;;;;;;;22.17;35.62;99281.21;104704;1281;61223;-79
2022/05/15 12:38:07;;;;;;;4.10;2.00;;;;;;;22.15;35.36;99277.04;104450;1281;72393;-76
2022/05/15 12:40:37;;;;;;;4.60;2.30;;;;;;;22.15;35.37;99268.62;103994;1281;69166;-78
2022/05/15 12:43:18;;;;;;;;;;;;;;;22.12;35.09;99276.43;104204;1281;349598;-79
2022/05/15 12:45:44;;;;;;;5.50;2.00;;;;;;;21.98;35.18;99272.92;104730;1281;59193;-82
2022/05/15 12:48:12;;;;;;;6.20;1.90;;;;;;;21.98;35.15;99271.02;104634;1281;62851;-78
2022/05/15 12:51:03;;;;;;;6.10;2.10;;;;;;;22.06;34.66;99267.73;104729;1281;73237;-79
2022/05/15 12:53:43;;;;;;;4.80;2.10;;;;;;;22.15;34.62;99258.94;104773;1281;69120;-78
2022/05/15 12:56:15;;;;;;;3.10;1.90;;;;;;;22.19;33.62;99260.25;104818;1279;73259;-78
2022/05/15 12:58:43;;;;;;;4.00;1.70;;;;;;;22.21;34.16;99262.84;104360;1281;59850;-78
2022/05/15 13:01:13;;;;;;;3.40;1.80;;;;;;;22.23;34.10;99258.66;104913;1281;61815;-79
2022/05/15 13:03:47;;;;;;;4.30;1.90;;;;;;;22.16;34.04;99254.60;104487;1281;74563;-78
2022/05/15 13:06:18;;;;;;;2.30;1.60;;;;;;;22.12;33.98;99261.48;104542;1281;69337;-81
2022/05/15 13:08:50;;;;;;;5.80;2.00;;;;;;;22.07;34.44;99260.96;104506;1281;73329;-80
2022/05/15 13:11:24;;;;;;;5.20;2.20;;;;;;;22.07;34.55;99262.07;104689;1281;59709;-79
2022/05/15 13:13:54;;;;;;;4.80;1.90;;;;;;;22.03;34.62;99259.77;104520;1281;61029;-80
2022/05/15 13:16:24;;;;;;;2.80;1.80;;;;;;;21.82;34.55;99252.20;104516;1281;74173;-80
2022/05/15 13:18:53;;;;;;;;;;;;;;;21.77;34.23;99246.70;104576;1279;59744;-79
2022/05/15 13:21:33;;;;;;;3.60;1.80;;;;;;;21.78;34.62;99242.09;104578;1279;73018;-80
2022/05/15 13:24:01;;;;;;;4.20;2.20;;;;;;;21.88;34.39;99240.97;104532;1281;59568;-79
2022/05/15 13:26:37;;;;;;;4.10;2.10;;;;;;;21.99;34.61;99244.33;104528;1281;61117;-80
2022/05/15 13:29:07;;;;;;;4.00;1.80;;;;;;;22.04;34.85;99241.02;104556;1281;72882;-80
2022/05/15 13:31:35;;;;;;;;;;;;;;;22.18;35.14;99242.61;104791;1280;67291;-78
2022/05/15 13:34:04;;;;;;;4.80;1.90;;;;;;;22.25;35.57;99240.48;104541;1281;74167;-79
2022/05/15 13:36:31;;;;;;;4.60;2.10;;;;;;;22.40;35.14;99235.64;104156;1280;59720;-78
2022/05/15 13:44:36;;;;;;;3.80;1.60;;;;;;;22.31;33.99;99236.40;104496;1281;69755;-79
2022/05/15 13:47:10;;;;;;;3.30;1.70;;;;;;;22.27;33.97;99235.45;104522;1280;72656;-78
2022/05/15 13:49:41;;;;;;;3.70;1.50;;;;;;;22.26;34.12;99240.78;104472;1281;59809;-79
2022/05/15 13:52:26;;;;;;;6.00;2.10;;;;;;;22.30;34.34;99235.08;104479;1281;61091;-78
2022/05/15 13:54:54;;;;;;;3.60;1.80;;;;;;;22.26;33.94;99231.38;104478;1281;73698;-78
2022/05/15 13:57:21;;;;;;;4.70;1.90;;;;;;;22.06;33.85;99225.23;104527;1279;69646;-79
2022/05/15 13:59:51;;;;;;;5.20;1.90;;;;;;;22.05;34.45;99227.16;104534;1281;73403;-78
2022/05/15 14:02:23;;;;;;;2.40;1.60;;;;;;;22.03;33.83;99224.86;104502;1281;59677;-78
2022/05/15 14:04:59;;;;;;;6.20;1.70;;;;;;;21.96;34.18;99225.79;104240;1281;60815;-79
2022/05/15 14:07:35;;;;;;;3.30;1.60;;;;;;;21.98;33.82;99219.98;104477;1281;73124;-81
2022/05/15 14:10:20;;;;;;;4.00;1.70;;;;;;;22.00;34.25;99218.89;104488;1281;70124;-81
2022/05/15 14:12:51;;;;;;;4.00;2.00;;;;;;;22.10;34.57;99218.13;104711;1281;73829;-79
2022/05/15 14:15:40;;;;;;;3.60;1.40;;;;;;;22.22;34.74;99216.92;104491;1279;59764;-79
2022/05/15 14:18:30;;;;;;;4.20;1.70;;;;;;;22.26;33.71;99210.30;104546;1281;59787;-78
2022/05/15 14:21:15;;;;;;;5.70;1.60;;;;;;;22.21;33.77;99209.46;104511;1281;71968;-81
2022/05/15 14:23:42;;;;;;;3.40;1.40;;;;;;;22.28;34.32;99206.46;104538;1281;70392;-78
2022/05/15 14:26:11;;;;;;;3.30;2.00;;;;;;;22.36;34.12;99202.89;104489;1281;74598;-80
2022/05/15 14:28:41;;;;;;;3.30;1.70;;;;;;;22.26;33.18;99202.91;104581;1281;59786;-81
2022/05/15 14:31:10;;;;;;;2.00;1.60;;;;;;;22.14;32.76;99202.29;104286;1281;61414;-78
2022/05/15 14:33:44;;;;;;;2.60;1.70;;;;;;;22.03;32.67;99201.11;104559;1281;73752;-77
2022/05/15 14:36:15;;;;;;;3.50;1.40;;;;;;;22.00;32.59;99193.30;104510;1281;69216;-79
2022/05/15 14:38:41;;;;;;;3.60;1.70;;;;;;;21.90;32.11;99198.74;104603;1279;73095;-79
2022/05/15 14:41:09;;;;;;;2.70;1.70;;;;;;;21.83;32.65;99197.56;104518;1281;59828;-79
2022/05/15 14:43:38;;;;;;;4.80;2.10;;;;;;;21.88;32.92;99200.52;104060;1281;62239;-81
2022/05/15 14:46:08;;;;;;;4.60;1.80;;;;;;;21.93;32.67;99195.72;104327;1281;72200;-79
2022/05/15 14:48:39;;;;;;;2.80;1.20;;;;;;;21.91;32.61;99187.29;104549;1279;69272;-78
2022/05/15 14:51:13;;;;;;;2.70;1.40;;;;;;;21.92;32.57;99189.09;104639;1281;74411;-79
2022/05/15 14:53:40;;;;;;;2.60;1.30;;;;;;;21.94;31.87;99190.80;104578;1281;60039;-78
2022/05/15 14:56:08;;;;;;;4.50;1.50;;;;;;;21.88;32.11;99186.36;104570;1281;60469;-79
2022/05/15 14:58:41;;;;;;;5.20;1.80;;;;;;;21.89;31.84;99188.00;104591;1281;73585;-80
2022/05/15 15:01:08;;;;;;;1.80;1.20;;;;;;;21.89;32.05;99187.17;104500;1280;69259;-79
2022/05/15 15:03:35;;;;;;;3.70;1.50;;;;;;;21.89;31.79;99187.79;104520;1281;74818;-79
2022/05/15 15:06:03;;;;;;;1.10;1.00;;;;;;;21.88;31.57;99182.73;104498;1281;59544;-80
2022/05/15 15:08:31;;;;;;;3.40;1.30;;;;;;;21.90;31.99;99181.20;104141;1281;62063;-78
2022/05/15 15:11:20;;;;;;;3.00;1.30;;;;;;;21.95;32.20;99179.19;104577;1281;73915;-79
2022/05/15 15:13:52;;;;;;;3.20;1.60;;;;;;;21.90;32.07;99181.55;104544;1281;70760;-78
2022/05/15 15:16:22;;;;;;;3.40;1.70;;;;;;;21.90;32.54;99180.90;104406;1281;73862;-80
2022/05/15 15:18:49;;;;;;;1.90;1.40;;;;;;;21.96;32.44;99175.17;104583;1281;59703;-79
2022/05/15 15:21:17;;;;;;;4.30;2.00;;;;;;;21.91;32.39;99175.27;104636;1281;59980;-79
2022/05/15 15:23:44;;;;;;;3.90;1.50;;;;;;;21.95;32.89;99178.73;104611;1281;74297;-81
2022/05/15 15:26:12;;;;;;;4.40;1.50;;;;;;;21.98;32.16;99176.21;104469;1281;70058;-79
2022/05/15 15:28:39;;;;;;;4.30;1.60;;;;;;;21.96;31.45;99181.16;104506;1281;73289;-76
2022/05/15 15:31:06;;;;;;;2.30;1.20;;;;;;;21.87;30.50;99180.84;104552;1281;59697;-79
2022/05/15 15:33:33;;;;;;;3.70;1.20;;;;;;;21.88;31.31;99177.69;104514;1280;61056;-78
2022/05/15 15:36:00;;;;;;;2.40;1.10;;;;;;;21.96;31.31;99176.21;104462;1281;74835;-76
2022/05/15 15:38:27;;;;;;;2.90;1.40;;;;;;;21.97;30.49;99176.72;104505;1281;69131;-78
2022/05/15 15:40:57;;;;;;;3.90;1.70;;;;;;;21.85;30.70;99175.06;104962;1277;71705;-81
2022/05/15 15:43:28;;;;;;;4.00;1.30;;;;;;;21.72;30.67;99175.98;104522;1277;59798;-78
2022/05/15 15:45:56;;;;;;;3.10;1.50;;;;;;;21.57;30.52;99173.85;104639;1278;61018;-79
2022/05/15 15:48:23;;;;;;;2.80;1.20;;;;;;;21.40;30.48;99171.31;104887;1277;73766;-80
2022/05/15 15:50:50;;;;;;;5.60;1.60;;;;;;;21.24;31.11;99167.52;104879;1277;69382;-78
2022/05/15 15:53:19;;;;;;;5.00;1.70;;;;;;;21.11;31.41;99168.15;104824;1277;72255;-79
2022/05/15 15:55:46;;;;;;;2.70;1.20;;;;;;;21.03;31.60;99172.86;104878;1277;59800;-78
2022/05/15 15:58:14;;;;;;;3.80;1.70;;;;;;;20.96;31.96;99173.96;104856;1277;61011;-79
2022/05/15 16:00:45;;;;;;;2.60;1.40;;;;;;;20.94;31.81;99171.15;104502;1277;73603;-79
2022/05/15 16:03:13;;;;;;;4.10;1.50;;;;;;;20.94;31.49;99171.95;104908;1277;69556;-78
2022/05/15 16:05:41;;;;;;;4.20;1.50;;;;;;;20.94;31.39;99172.48;104867;1277;73085;-78
2022/05/15 16:08:08;;;;;;;2.60;1.90;;;;;;;20.97;31.66;99174.23;104860;1277;59655;-80
2022/05/15 16:10:37;;;;;;;4.90;1.60;;;;;;;21.01;32.03;99173.63;104828;1277;60562;-79
2022/05/15 16:13:05;;;;;;;2.70;1.60;;;;;;;21.07;31.55;99173.38;104898;1276;73679;-79
2022/05/15 16:15:32;;;;;;;2.40;1.40;;;;;;;21.08;31.83;99174.66;104511;1277;69421;-79
2022/05/15 16:17:59;;;;;;;2.80;1.60;;;;;;;21.07;31.83;99169.34;104883;1277;73634;-78
2022/05/15 16:20:41;;;;;;;2.50;1.50;;;;;;;21.09;31.84;99171.14;104864;1278;60202;-78
2022/05/15 16:23:10;;;;;;;3.20;1.30;;;;;;;21.09;31.85;99169.31;104566;1278;59645;-78
2022/05/15 16:25:36;;;;;;;3.20;1.40;;;;;;;21.06;31.56;99166.94;104835;1277;72523;-79
2022/05/15 16:28:03;;;;;;;2.30;1.30;;;;;;;21.05;31.64;99169.17;104873;1277;69396;-77
2022/05/15 16:30:30;;;;;;;3.60;1.40;;;;;;;21.03;31.70;99167.36;104553;1277;73391;-78
2022/05/15 16:32:57;;;;;;;1.60;1.20;;;;;;;21.02;32.09;99169.80;104551;1277;59785;-81
2022/05/15 16:35:23;;;;;;;3.30;1.30;;;;;;;21.01;32.04;99167.09;104570;1277;60767;-79
2022/05/15 16:37:50;;;;;;;2.90;1.40;;;;;;;20.98;32.00;99165.05;104558;1277;59723;-77
2022/05/15 16:40:18;;;;;;;1.70;1.40;;;;;;;20.98;32.45;99166.31;104569;1277;59676;-79
2022/05/15 16:42:45;;;;;;;3.20;1.20;;;;;;;20.98;32.51;99170.50;104853;1277;73192;-78
2022/05/15 16:45:18;;;;;;;5.80;2.70;;;;;;;20.93;32.34;99172.12;104893;1277;60593;-78
2022/05/15 16:47:45;;;;;;;4.60;2.80;;;;;;;20.83;32.58;99172.39;104860;1277;61391;-78
2022/05/15 16:50:18;;;;;;;4.00;1.50;;;;;;;20.82;32.88;99172.03;104850;1277;60459;-79
2022/05/15 16:52:47;;;;;;;8.60;5.10;;;;;;;20.97;32.98;99168.77;104932;1277;68884;-78
2022/05/15 16:55:14;;;;;;;3.50;1.90;;;;;;;21.33;33.06;99165.81;104910;1277;72337;-79
2022/05/15 16:57:41;;;;;;;2.50;1.30;;;;;;;21.59;32.37;99166.00;104823;1277;60513;-79
2022/05/15 17:00:12;;;;;;;5.50;1.80;;;;;;;21.67;32.24;99167.00;104520;1278;60395;-80
2022/05/15 17:02:39;;;;;;;2.00;1.30;;;;;;;21.67;32.49;99161.67;104918;1277;75352;-81
2022/05/15 17:05:07;;;;;;;2.40;1.30;;;;;;;21.92;32.38;99167.59;104452;1278;70240;-79
2022/05/15 17:07:34;;;;;;;4.20;1.80;;;;;;;22.18;32.34;99165.41;104607;1277;74433;-79
2022/05/15 17:10:00;;;;;;;2.20;1.50;;;;;;;22.38;31.96;99165.00;104769;1277;60479;-80
2022/05/15 17:12:27;;;;;;;4.00;2.00;;;;;;;22.45;32.17;99165.83;104815;1277;61379;-79
2022/05/15 17:14:54;;;;;;;4.50;2.30;;;;;;;22.59;32.11;99163.36;104850;1277;74655;-80
2022/05/15 17:17:20;;;;;;;4.90;2.10;;;;;;;22.69;32.01;99160.77;104829;1277;69418;-79
2022/05/15 17:19:47;;;;;;;3.00;1.70;;;;;;;22.81;32.06;99161.88;104557;1277;73385;-80
2022/05/15 17:22:13;;;;;;;3.30;1.70;;;;;;;22.91;31.75;99164.38;104443;1277;60604;-78
2022/05/15 17:24:40;;;;;;;4.10;1.90;;;;;;;22.83;31.56;99162.37;104822;1277;61990;-79
2022/05/15 17:27:08;;;;;;;5.40;1.70;;;;;;;22.78;31.61;99164.98;104848;1277;60425;-80
2022/05/15 17:35:13;;;;;;;3.50;1.50;;;;;;;22.55;31.92;99167.55;104884;1277;60625;-79
2022/05/15 17:37:39;;;;;;;3.10;1.80;;;;;;;22.55;31.93;99169.46;104841;1277;61004;-80
2022/05/15 17:40:13;;;;;;;2.80;1.70;;;;;;;22.43;32.04;99176.41;104864;1277;72566;-78
2022/05/15 17:42:40;;;;;;;3.00;1.50;;;;;;;22.41;32.18;99173.17;104930;1278;70222;-79
2022/05/15 17:45:10;;;;;;;3.40;1.60;;;;;;;22.41;32.38;99172.80;104538;1278;74581;-79
2022/05/15 17:47:37;;;;;;;;;;;;;;;22.33;32.48;99179.86;104576;1278;60627;-79
2022/05/15 17:50:06;;;;;;;3.70;1.70;;;;;;;22.11;32.51;99179.08;104889;1276;60485;-76
2022/05/15 17:52:33;;;;;;;2.20;1.30;;;;;;;21.83;32.80;99183.31;104591;1278;75416;-80
2022/05/15 17:54:59;;;;;;;4.00;1.80;;;;;;;21.52;33.07;99183.11;104871;1276;60479;-79
2022/05/15 17:57:26;;;;;;;4.20;1.80;;;;;;;21.30;33.52;99185.63;104635;1277;60512;-77
2022/05/15 17:59:53;;;;;;;3.20;1.60;;;;;;;21.18;33.80;99188.38;104868;1277;60514;-80
2022/05/15 18:02:19;;;;;;;3.80;1.70;;;;;;;20.89;33.95;99194.48;104857;1277;60788;-78
2022/05/15 18:04:46;;;;;;;2.80;1.40;;;;;;;20.56;34.34;99193.85;104889;1276;60653;-77
2022/05/15 18:07:13;;;;;;;3.40;1.70;;;;;;;20.22;34.78;99192.54;104854;1277;69281;-78
2022/05/15 18:09:39;;;;;;;3.00;1.70;;;;;;;19.93;35.29;99195.07;104861;1276;73650;-77
2022/05/15 18:12:08;;;;;;;4.00;1.80;;;;;;;19.62;35.70;99195.84;104845;1276;60535;-78
2022/05/15 18:14:37;;;;;;;2.80;1.70;;;;;;;19.35;36.11;99196.91;105053;1277;60802;-79
2022/05/15 18:17:05;;;;;;;3.70;1.70;;;;;;;19.09;36.62;99194.47;104937;1277;75371;-79
2022/05/15 18:19:33;;;;;;;3.10;1.80;;;;;;;18.84;37.02;99197.63;104954;1276;70078;-78
2022/05/15 18:22:01;;;;;;;3.00;2.20;;;;;;;18.58;37.42;99199.40;104858;1277;71775;-77
2022/05/15 18:24:27;;;;;;;4.00;1.90;;;;;;;18.38;37.78;99207.05;104796;1277;60570;-81
2022/05/15 18:26:54;;;;;;;5.00;2.40;;;;;;;18.16;38.62;99210.79;104810;1277;60960;-79
2022/05/15 18:29:22;;;;;;;3.40;2.50;;;;;;;17.94;39.42;99214.84;104548;1278;73393;-78
2022/05/15 18:31:49;;;;;;;4.50;2.70;;;;;;;17.68;40.15;99213.10;104978;1276;69592;-79
2022/05/15 18:34:17;;;;;;;3.30;2.40;;;;;;;17.47;40.69;99217.04;104845;1277;72191;-80
2022/05/15 18:36:45;;;;;;;4.80;2.30;;;;;;;17.30;41.21;99214.81;104769;1277;60520;-79
2022/05/15 18:39:13;;;;;;;6.20;3.00;;;;;;;17.12;41.74;99216.30;104876;1277;61883;-78
2022/05/15 18:41:43;;;;;;;5.10;2.40;;;;;;;16.93;42.40;99223.54;104580;1277;74326;-79
2022/05/15 18:44:17;;;;;;;6.20;2.80;;;;;;;16.76;43.11;99226.71;104948;1277;69174;-80
2022/05/15 18:46:43;;;;;;;4.20;2.30;;;;;;;16.57;43.46;99228.33;104864;1276;72712;-79
2022/05/15 18:49:10;;;;;;;5.20;2.60;;;;;;;16.41;44.07;99233.19;104811;1278;60500;-78
2022/05/15 18:57:23;;;;;;;3.60;2.50;;;;;;;15.95;45.63;99239.79;104308;1282;69239;-78
2022/05/15 18:59:53;;;;;;;5.30;2.40;;;;;;;15.84;46.36;99241.85;104194;1284;72790;-80
2022/05/15 19:02:21;;;;;;;4.60;2.10;;;;;;;15.72;46.76;99244.11;104324;1284;60411;-78
2022/05/15 19:04:48;;;;;;;5.70;2.80;;;;;;;15.58;47.21;99249.88;103940;1284;61885;-79
2022/05/15 19:07:16;;;;;;;8.90;4.60;;;;;;;15.47;47.78;99257.81;104370;1283;74498;-78
2022/05/15 19:09:43;;;;;;;8.40;4.80;;;;;;;15.42;47.87;99259.80;104314;1283;70217;-80
2022/05/15 19:12:10;;;;;;;9.10;5.00;;;;;;;15.44;48.16;99261.08;104130;1284;71798;-80
2022/05/15 19:14:37;;;;;;;6.50;3.60;;;;;;;15.43;48.15;99262.39;104328;1283;60791;-78
2022/05/15 19:17:05;;;;;;;5.50;3.30;;;;;;;15.37;48.50;99261.48;104345;1283;60812;-78
2022/05/15 19:19:34;;;;;;;5.90;3.80;;;;;;;15.29;48.68;99263.04;104319;1284;74815;-80
2022/05/15 19:22:02;;;;;;;5.30;3.80;;;;;;;15.20;48.87;99261.65;104400;1283;70457;-82
2022/05/15 19:24:30;;;;;;;6.80;3.70;;;;;;;15.10;49.43;99267.10;104361;1284;74212;-80
2022/05/15 19:26:58;;;;;;;7.30;3.90;;;;;;;15.00;49.85;99264.15;104363;1284;60711;-79
2022/05/15 19:29:24;;;;;;;6.90;3.50;;;;;;;14.88;50.14;99268.30;104341;1284;61005;-79
2022/05/15 19:31:51;;;;;;;8.10;3.60;;;;;;;14.79;50.34;99271.19;104345;1284;75098;-78
2022/05/15 19:34:18;;;;;;;5.90;3.20;;;;;;;14.70;50.89;99275.64;104705;1277;69762;-78
2022/05/15 19:36:44;;;;;;;7.20;3.30;;;;;;;14.61;51.39;99273.48;104795;1277;73181;-78
2022/05/15 19:39:11;;;;;;;6.90;3.50;;;;;;;14.49;51.85;99278.16;104796;1277;60587;-78
2022/05/15 19:41:38;;;;;;;6.80;3.20;;;;;;;14.37;52.01;99277.52;104821;1277;60427;-80
2022/05/15 19:44:05;;;;;;;7.40;3.90;;;;;;;14.26;52.36;99280.84;104837;1277;74511;-79
2022/05/15 19:46:31;;;;;;;5.20;3.50;;;;;;;14.16;52.82;99278.63;104561;1277;68540;-78
2022/05/15 19:48:58;;;;;;;5.90;3.60;;;;;;;14.06;53.56;99285.13;104817;1277;72288;-79
2022/05/15 19:51:24;;;;;;;5.30;3.20;;;;;;;13.93;54.30;99286.46;104830;1277;60559;-80
2022/05/15 19:53:51;;;;;;;8.20;4.20;;;;;;;13.83;54.59;99282.21;104833;1277;60511;-78
2022/05/15 19:56:40;;;;;;;7.40;3.40;;;;;;;13.75;55.12;99279.77;104867;1277;74859;-79
2022/05/15 19:59:10;;;;;;;9.50;3.90;;;;;;;13.67;55.79;99280.34;104861;1277;69546;-80
2022/05/15 20:01:39;;;;;;;8.80;4.10;;;;;;;13.58;56.19;99278.51;104943;1277;73850;-82
2022/05/15 20:04:07;;;;;;;6.90;4.00;;;;;;;13.51;56.72;99277.45;104972;1277;61075;-81
2022/05/15 20:12:10;;;;;;;6.70;3.50;;;;;;;13.33;57.99;99288.09;104513;1277;68930;-79
2022/05/15 20:14:37;;;;;;;5.50;3.60;;;;;;;13.25;58.42;99290.08;104809;1276;74426;-79
2022/05/15 20:17:04;;;;;;;6.50;4.10;;;;;;;13.17;58.75;99287.21;104818;1277;60712;-78
2022/05/15 20:19:32;;;;;;;5.80;3.80;;;;;;;13.11;59.24;99290.58;104836;1277;60830;-80
2022/05/15 20:21:59;;;;;;;9.30;4.40;;;;;;;13.02;59.43;99289.73;104905;1277;75067;-77
2022/05/15 20:24:26;;;;;;;6.20;4.30;;;;;;;12.94;60.02;99290.50;104848;1277;69136;-79
2022/05/15 20:26:52;;;;;;;10.10;5.70;;;;;;;12.88;60.44;99291.64;104816;1277;60606;-78
2022/05/15 20:29:19;;;;;;;6.50;5.10;;;;;;;12.81;60.75;99291.47;104807;1277;60517;-78
2022/05/15 20:31:47;;;;;;;6.70;5.40;;;;;;;12.69;61.19;99295.01;104859;1277;61381;-80
2022/05/15 20:34:25;;;;;;;9.20;6.10;;;;;;;12.57;61.69;99298.84;104876;1278;75856;-77
2022/05/15 20:36:54;;;;;;;7.40;5.40;;;;;;;12.48;62.25;99297.48;104843;1277;70087;-78
2022/05/15 20:39:23;;;;;;;7.20;4.80;;;;;;;12.40;62.68;99297.54;104953;1277;73562;-79
2022/05/15 20:41:51;;;;;;;11.00;5.30;;;;;;;12.34;62.91;99298.13;104613;1278;60629;-77
2022/05/15 20:44:20;;;;;;;7.80;5.70;;;;;;;12.29;63.40;99300.44;104873;1278;60805;-78
2022/05/15 20:46:48;;;;;;;9.90;5.70;;;;;;;12.24;63.83;99300.29;104905;1276;75828;-80
2022/05/15 20:49:16;;;;;;;10.20;5.70;;;;;;;12.17;64.09;99300.75;104703;1278;69221;-74
2022/05/15 20:51:42;;;;;;;10.00;6.40;;;;;;;12.12;64.34;99299.14;104864;1277;73185;-75
2022/05/15 20:54:11;;;;;;;8.30;5.70;;;;;;;12.07;64.63;99300.36;104837;1276;60484;-76
2022/05/15 20:56:42;;;;;;;11.90;6.50;;;;;;;12.01;65.12;99297.73;104623;1278;61061;-74
2022/05/15 20:59:10;;;;;;;11.30;6.30;;;;;;;11.95;65.37;99295.84;104894;1277;74808;-77
2022/05/15 21:01:38;;;;;;;9.70;5.80;;;;;;;11.89;65.82;99296.23;104849;1277;70252;-76
2022/05/15 21:04:05;;;;;;;8.90;5.90;;;;;;;11.82;66.09;99296.51;104863;1278;73498;-76
2022/05/15 21:06:31;;;;;;;11.10;7.10;;;;;;;11.74;66.53;99301.27;104854;1277;60561;-75
2022/05/15 21:08:58;;;;;;;11.20;6.70;;;;;;;11.72;66.83;99299.52;104828;1278;60478;-75
2022/05/15 21:11:26;;;;;;;9.10;6.50;;;;;;;11.67;67.16;99296.99;104944;1274;75477;-75
2022/05/15 21:13:53;;;;;;;9.30;5.90;;;;;;;11.60;67.69;99297.23;104825;1274;66412;-75
2022/05/15 21:16:20;;;;;;;8.90;5.90;;;;;;;11.54;68.21;99295.34;104858;1274;73350;-77
2022/05/15 21:18:46;;;;;;;13.00;5.80;;;;;;;11.45;68.64;99299.52;104935;1274;60500;-77
2022/05/15 21:21:14;;;;;;;8.60;6.20;;;;;;;11.38;68.92;99302.08;104974;1274;60597;-76
2022/05/15 21:23:41;;;;;;;12.20;6.10;;;;;;;11.33;69.37;99299.02;104880;1275;74666;-75
2022/05/15 21:26:09;;;;;;;8.40;5.10;;;;;;;11.28;69.87;99302.03;104857;1274;70420;-76
2022/05/15 21:28:36;;;;;;;8.20;5.80;;;;;;;11.22;70.12;99296.86;104981;1274;74336;-76
2022/05/15 21:31:05;;;;;;;17.30;5.90;;;;;;;11.17;70.42;99292.92;105047;1273;60462;-78
2022/05/15 21:33:31;;;;;;;10.70;6.50;;;;;;;11.15;70.97;99293.59;104941;1274;60881;-77
2022/05/15 21:35:58;;;;;;;7.60;6.10;;;;;;;11.11;71.40;99296.56;104966;1274;75696;-76
2022/05/15 21:43:55;;;;;;;17.80;9.20;;;;;;;10.97;73.32;99306.14;104958;1274;60439;-77
2022/05/15 21:46:22;;;;;;;11.70;8.10;;;;;;;10.93;73.65;99303.86;104812;1275;60510;-76
2022/05/15 21:48:49;;;;;;;10.70;8.30;;;;;;;10.91;73.77;99304.73;104966;1274;74567;-77
2022/05/15 21:51:17;;;;;;;15.80;11.50;;;;;;;10.89;74.19;99307.52;104900;1274;60510;-76
2022/05/15 21:53:44;;;;;;;14.70;10.60;;;;;;;10.87;74.90;99308.38;104944;1274;73607;-76
2022/05/15 21:56:13;;;;;;;13.70;11.20;;;;;;;10.84;75.09;99305.38;104942;1274;60487;-75
2022/05/15 21:58:39;;;;;;;21.20;12.60;;;;;;;10.82;75.38;99302.32;104963;1273;60834;-76
2022/05/15 22:01:06;;;;;;;14.90;11.50;;;;;;;10.80;75.67;99303.50;104939;1274;74648;-77
2022/05/15 22:03:35;;;;;;;16.80;11.30;;;;;;;10.77;76.01;99302.96;104899;1274;69963;-77
2022/05/15 22:06:04;;;;;;;13.50;10.80;;;;;;;10.72;76.11;99306.09;105094;1274;73291;-77
2022/05/15 22:08:31;;;;;;;17.30;10.90;;;;;;;10.68;76.50;99306.69;104936;1274;60925;-76
2022/05/15 22:10:58;;;;;;;16.20;11.00;;;;;;;10.65;76.92;99307.80;104947;1274;61020;-76
2022/05/15 22:13:24;;;;;;;15.90;11.40;;;;;;;10.60;77.42;99311.12;104936;1274;60467;-77
2022/05/15 22:15:53;;;;;;;19.00;11.80;;;;;;;10.57;77.82;99313.07;104914;1274;60497;-77
2022/05/15 22:18:22;;;;;;;16.10;11.90;;;;;;;10.54;77.99;99314.16;104980;1274;74200;-77
2022/05/15 22:20:49;;;;;;;18.30;13.70;;;;;;;10.50;78.23;99316.31;104585;1275;61307;-78
2022/05/15 22:23:16;;;;;;;16.80;12.30;;;;;;;10.48;78.84;99316.30;104922;1274;61300;-77
2022/05/15 22:25:44;;;;;;;19.50;13.10;;;;;;;10.45;79.41;99317.23;104941;1274;74312;-76
2022/05/15 22:28:12;;;;;;;18.60;13.10;;;;;;;10.41;79.48;99311.77;105023;1274;68643;-76
2022/05/15 22:30:41;;;;;;;20.20;13.60;;;;;;;10.38;79.95;99314.25;104955;1274;73144;-77
2022/05/15 22:33:08;;;;;;;18.90;13.70;;;;;;;10.35;80.39;99310.20;104962;1274;61505;-78
2022/05/15 22:35:35;;;;;;;19.00;13.00;;;;;;;10.30;80.44;99312.59;104921;1274;61170;-77
2022/05/15 22:38:03;;;;;;;17.60;11.90;;;;;;;10.28;80.94;99313.98;104621;1274;73048;-76
2022/05/15 22:40:30;;;;;;;16.20;11.80;;;;;;;10.25;81.20;99314.80;104822;1274;70717;-76
2022/05/15 22:42:57;;;;;;;19.00;12.60;;;;;;;10.23;81.47;99313.36;104840;1275;72997;-76
2022/05/15 22:45:23;;;;;;;18.90;12.70;;;;;;;10.20;81.97;99308.17;104896;1272;60846;-76
2022/05/15 22:47:50;;;;;;;21.40;11.70;;;;;;;10.19;82.07;99307.23;104922;1274;60501;-76
2022/05/15 22:50:16;;;;;;;18.00;12.80;;;;;;;10.17;82.17;99311.61;104923;1274;60615;-76
2022/05/15 22:52:43;;;;;;;18.10;11.70;;;;;;;10.14;82.41;99314.46;104601;1275;60593;-76
2022/05/15 22:55:10;;;;;;;19.20;11.70;;;;;;;10.10;82.49;99310.23;104907;1274;73296;-78
2022/05/15 22:57:37;;;;;;;19.90;12.40;;;;;;;10.08;82.82;99314.41;104933;1274;60876;-77
2022/05/15 23:00:06;;;;;;;22.30;12.30;;;;;;;10.05;83.00;99317.45;104947;1274;60789;-77
2022/05/15 23:02:33;;;;;;;21.30;11.70;;;;;;;10.04;82.85;99315.56;105126;1273;74300;-76
2022/05/15 23:07:45;;;;;;;20.90;11.40;;;;;;;9.99;83.06;99316.05;104947;1274;72171;-77
2022/05/15 23:10:15;;;;;;;19.30;10.90;;;;;;;9.95;83.08;99313.99;104959;1274;60545;-77
2022/05/15 23:12:41;;;;;;;17.80;10.80;;;;;;;9.92;83.07;99314.15;104916;1274;61760;-79
2022/05/15 23:15:10;;;;;;;15.60;10.70;;;;;;;9.90;83.15;99318.69;105252;1268;73881;-76
2022/05/15 23:17:37;;;;;;;20.30;11.00;;;;;;;9.86;82.95;99313.43;105198;1268;69424;-76
2022/05/15 23:20:06;;;;;;;18.70;11.30;;;;;;;9.82;83.34;99310.99;105201;1268;73509;-77
2022/05/15 23:22:32;;;;;;;21.80;11.60;;;;;;;9.78;83.54;99308.95;105343;1268;60471;-76
2022/05/15 23:24:59;;;;;;;19.20;11.70;;;;;;;9.74;83.72;99313.08;105197;1268;60495;-75
2022/05/15 23:27:26;;;;;;;16.40;10.60;;;;;;;9.68;84.14;99312.69;105243;1270;60455;-77
2022/05/15 23:29:53;;;;;;;17.50;11.70;;;;;;;9.64;84.41;99311.86;105313;1268;70450;-79
2022/05/15 23:32:19;;;;;;;17.60;12.20;;;;;;;9.59;84.79;99311.27;105290;1268;73331;-77
2022/05/15 23:34:48;;;;;;;16.40;11.10;;;;;;;9.53;85.13;99310.36;105325;1268;60510;-76
2022/05/15 23:37:17;;;;;;;17.90;11.60;;;;;;;9.50;85.49;99309.86;105235;1268;60961;-76
2022/05/15 23:39:43;;;;;;;16.70;12.20;;;;;;;9.45;85.61;99304.08;105305;1268;75143;-76
2022/05/15 23:42:11;;;;;;;19.10;11.60;;;;;;;9.40;85.96;99304.73;105313;1268;60554;-75
2022/05/15 23:44:39;;;;;;;21.80;11.70;;;;;;;9.35;86.22;99302.20;105337;1268;73276;-77
2022/05/15 23:47:07;;;;;;;18.70;12.00;;;;;;;9.31;86.54;99304.17;105303;1267;60751;-76
2022/05/15 23:49:40;;;;;;;19.50;12.50;;;;;;;9.25;86.61;99303.27;105360;1268;60868;-77
2022/05/15 23:52:08;;;;;;;18.20;11.30;;;;;;;9.20;86.91;99300.34;105293;1269;74515;-77
2022/05/15 23:54:35;;;;;;;16.70;11.30;;;;;;;9.17;86.93;99298.23;105377;1267;69293;-77
2022/05/15 23:57:03;;;;;;;16.80;11.50;;;;;;;9.10;86.91;99297.73;105213;1269;73563;-78
2022/05/15 23:59:30;;;;;;;17.50;11.00;;;;;;;9.05;87.26;99297.67;105227;1268;60578;-77
